createdAt,value
2024-05-09T00:02:02.133Z,59.14
2024-05-09T00:04:34.963Z,59.04
2024-05-09T00:07:07.586Z,59.07
2024-05-09T00:09:40.346Z,58.86
2024-05-09T00:12:13.098Z,59.05
2024-05-09T00:14:46.431Z,59.42
2024-05-09T00:17:19.137Z,59.58
2024-05-09T00:19:51.881Z,59.78
2024-05-09T00:22:24.644Z,60.15
2024-05-09T00:24:57.296Z,60.13
2024-05-09T00:27:29.871Z,60.02
2024-05-09T00:30:04.122Z,60.01
2024-05-09T00:32:37.057Z,59.38
2024-05-09T00:35:10.439Z,58.75
2024-05-09T00:37:43.114Z,58.83
2024-05-09T00:40:22.938Z,58.68
2024-05-09T00:43:03.582Z,58.76
2024-05-09T00:45:36.478Z,58.81
2024-05-09T00:48:11.571Z,59.03
2024-05-09T00:50:47.456Z,59.13
2024-05-09T00:53:21.541Z,59.27
2024-05-09T00:55:54.605Z,59.58
2024-05-09T00:58:27.970Z,59.33
2024-05-09T01:01:01.962Z,58.99
2024-05-09T01:03:34.697Z,59.04
2024-05-09T01:06:07.776Z,58.80
2024-05-09T01:08:40.539Z,58.99
2024-05-09T01:11:13.238Z,59.05
2024-05-09T01:13:46.453Z,59.23
2024-05-09T01:16:19.243Z,59.45
2024-05-09T01:18:52.371Z,59.66
2024-05-09T01:21:25.108Z,59.78
2024-05-09T01:23:57.899Z,59.89
2024-05-09T01:26:31.173Z,60.39
2024-05-09T01:29:03.835Z,60.46
2024-05-09T01:31:36.642Z,60.99
2024-05-09T01:34:09.320Z,61.19
2024-05-09T01:36:42.066Z,61.40
2024-05-09T01:39:15.037Z,61.46
2024-05-09T01:41:47.598Z,61.97
2024-05-09T01:44:20.693Z,61.84
2024-05-09T01:46:53.514Z,62.29
2024-05-09T01:49:26.437Z,62.38
2024-05-09T01:51:59.267Z,62.19
2024-05-09T01:54:31.807Z,62.52
2024-05-09T01:57:04.307Z,62.47
2024-05-09T01:59:36.777Z,63.08
2024-05-09T02:02:09.576Z,63.21
2024-05-09T02:04:42.533Z,63.21
2024-05-09T02:07:15.230Z,63.43
2024-05-09T02:09:47.853Z,63.48
2024-05-09T02:12:20.630Z,63.40
2024-05-09T02:14:54.421Z,63.59
2024-05-09T02:17:27.404Z,63.09
2024-05-09T02:20:00.390Z,63.01
2024-05-09T02:22:33.018Z,62.75
2024-05-09T02:25:05.816Z,62.76
2024-05-09T02:27:38.644Z,62.62
2024-05-09T02:30:19.083Z,62.57
2024-05-09T02:32:59.152Z,62.27
2024-05-09T02:35:32.267Z,62.30
2024-05-09T02:38:05.810Z,61.28
2024-05-09T02:40:39.906Z,59.62
2024-05-09T02:43:14.668Z,57.45
2024-05-09T02:45:47.682Z,55.11
2024-05-09T02:48:20.699Z,53.02
2024-05-09T02:50:53.858Z,50.76
2024-05-09T02:53:26.833Z,48.69
2024-05-09T02:55:59.654Z,46.62
2024-05-09T02:58:32.319Z,44.45
2024-05-09T03:01:05.439Z,42.89
2024-05-09T03:03:38.254Z,41.31
2024-05-09T03:06:11.040Z,39.47
2024-05-09T03:08:47.129Z,37.72
2024-05-09T03:11:26.885Z,36.06
2024-05-09T03:14:00.268Z,34.38
2024-05-09T03:16:33.637Z,33.56
2024-05-09T03:19:06.824Z,32.24
2024-05-09T03:21:42.576Z,31.21
2024-05-09T03:24:15.583Z,30.00
2024-05-09T03:26:48.751Z,28.87
2024-05-09T03:29:22.445Z,27.89
2024-05-09T03:31:55.730Z,26.96
2024-05-09T03:34:28.484Z,25.98
2024-05-09T03:37:01.386Z,25.25
2024-05-09T03:39:34.401Z,24.28
2024-05-09T03:42:08.424Z,23.62
2024-05-09T03:44:41.797Z,22.95
2024-05-09T03:47:14.493Z,21.82
2024-05-09T03:49:48.006Z,21.00
2024-05-09T03:52:21.005Z,20.43
2024-05-09T03:54:54.323Z,19.79
2024-05-09T03:57:26.931Z,19.17
2024-05-09T03:59:59.799Z,18.40
2024-05-09T04:02:32.772Z,17.97
2024-05-09T04:05:06.656Z,17.62
2024-05-09T04:07:40.661Z,17.28
2024-05-09T04:10:21.149Z,17.06
2024-05-09T04:13:01.303Z,16.44
2024-05-09T04:15:34.761Z,15.65
2024-05-09T04:18:08.760Z,15.61
2024-05-09T04:20:42.065Z,15.18
2024-05-09T04:23:15.714Z,14.78
2024-05-09T04:25:49.194Z,14.31
2024-05-09T04:28:24.194Z,13.93
2024-05-09T04:30:55.119Z,13.51
2024-05-09T04:33:28.294Z,13.11
2024-05-09T04:36:01.267Z,13.03
2024-05-09T04:38:34.319Z,12.60
2024-05-09T04:41:08.488Z,11.93
2024-05-09T04:43:41.682Z,11.75
2024-05-09T04:46:14.400Z,11.80
2024-05-09T04:48:47.446Z,11.39
2024-05-09T04:51:20.135Z,11.41
2024-05-09T04:53:53.175Z,10.97
2024-05-09T04:56:26.029Z,11.09
2024-05-09T04:58:59.066Z,10.67
2024-05-09T05:01:31.947Z,10.18
2024-05-09T05:04:05.509Z,10.01
2024-05-09T05:06:38.640Z,9.87
2024-05-09T05:09:11.656Z,9.73
2024-05-09T05:11:44.533Z,9.47
2024-05-09T05:14:17.314Z,9.21
2024-05-09T05:16:50.276Z,9.23
2024-05-09T05:19:23.113Z,8.83
2024-05-09T05:21:56.279Z,8.94
2024-05-09T05:24:29.397Z,8.40
2024-05-09T05:27:02.012Z,8.14
2024-05-09T05:29:35.203Z,7.99
2024-05-09T05:32:09.992Z,7.98
2024-05-09T05:34:42.785Z,7.69
2024-05-09T05:37:15.411Z,7.67
2024-05-09T05:39:48.811Z,7.52
2024-05-09T05:42:21.376Z,7.43
2024-05-09T05:44:53.940Z,7.48
2024-05-09T05:47:26.685Z,7.17
2024-05-09T05:49:59.715Z,7.08
2024-05-09T05:52:32.649Z,6.91
2024-05-09T05:55:05.547Z,6.72
2024-05-09T05:57:38.247Z,6.70
2024-05-09T06:00:21.389Z,7.03
2024-05-09T06:02:58.781Z,7.30
2024-05-09T06:05:31.693Z,7.08
2024-05-09T06:08:04.466Z,7.28
2024-05-09T06:10:39.902Z,6.88
2024-05-09T06:13:14.688Z,6.84
2024-05-09T06:15:45.585Z,6.69
2024-05-09T06:18:18.657Z,6.97
2024-05-09T06:20:52.749Z,6.96
2024-05-09T06:23:26.080Z,6.97
2024-05-09T06:25:58.707Z,6.84
2024-05-09T06:28:31.301Z,6.77
2024-05-09T06:31:05.253Z,6.74
2024-05-09T06:33:38.954Z,6.83
2024-05-09T06:36:12.022Z,7.17
2024-05-09T06:38:44.748Z,6.70
2024-05-09T06:41:17.596Z,7.29
2024-05-09T06:43:50.362Z,7.62
2024-05-09T06:46:23.015Z,7.66
2024-05-09T06:48:55.889Z,7.75
2024-05-09T06:51:29.133Z,7.40
2024-05-09T06:54:01.711Z,7.76
2024-05-09T06:56:34.751Z,8.04
2024-05-09T06:59:07.496Z,7.86
2024-05-09T07:01:40.643Z,7.83
2024-05-09T07:04:13.709Z,8.06
2024-05-09T07:06:46.463Z,8.32
2024-05-09T07:09:19.535Z,9.27
2024-05-09T07:11:52.580Z,10.05
2024-05-09T07:14:25.308Z,11.23
2024-05-09T07:16:58.009Z,12.43
2024-05-09T07:19:30.877Z,13.42
2024-05-09T07:22:03.604Z,14.52
2024-05-09T07:24:37.792Z,15.29
2024-05-09T07:27:10.781Z,15.94
2024-05-09T07:29:44.680Z,17.12
2024-05-09T07:32:17.484Z,17.20
2024-05-09T07:34:50.439Z,17.86
2024-05-09T07:37:22.968Z,18.60
2024-05-09T07:39:55.543Z,19.31
2024-05-09T07:42:28.050Z,19.42
2024-05-09T07:45:20.602Z,19.51
2024-05-09T07:49:43.644Z,18.62
2024-05-09T07:53:38.898Z,19.81
2024-05-09T07:56:14.269Z,20.15
2024-05-09T07:58:47.439Z,20.86
2024-05-09T08:01:21.286Z,21.46
2024-05-09T08:03:54.413Z,20.93
2024-05-09T08:06:27.663Z,21.24
2024-05-09T08:09:05.263Z,21.41
2024-05-09T08:11:40.944Z,21.20
2024-05-09T08:14:13.379Z,21.23
2024-05-09T08:16:46.574Z,21.91
2024-05-09T08:19:19.167Z,21.53
2024-05-09T08:21:52.066Z,22.66
2024-05-09T08:24:24.592Z,23.65
2024-05-09T08:26:57.336Z,24.03
2024-05-09T08:29:30.913Z,23.99
2024-05-09T08:32:03.386Z,23.82
2024-05-09T08:34:36.123Z,23.99
2024-05-09T08:37:13.252Z,23.77
2024-05-09T08:39:52.401Z,24.01
2024-05-09T08:42:26.354Z,24.33
2024-05-09T08:44:59.484Z,24.36
2024-05-09T08:47:34.421Z,24.73
2024-05-09T08:50:16.573Z,24.44
2024-05-09T08:52:57.475Z,24.46
2024-05-09T08:55:30.056Z,24.51
2024-05-09T08:58:04.096Z,24.43
2024-05-09T09:00:37.844Z,24.63
2024-05-09T09:03:13.348Z,24.86
2024-05-09T09:05:50.657Z,24.66
2024-05-09T09:08:23.435Z,25.21
2024-05-09T09:10:57.652Z,24.99
2024-05-09T09:13:30.817Z,24.81
2024-05-09T09:16:03.759Z,24.73
2024-05-09T09:18:36.942Z,24.23
2024-05-09T09:21:13.028Z,24.74
2024-05-09T09:23:46.405Z,25.51
2024-05-09T09:26:22.487Z,25.96
2024-05-09T09:28:55.150Z,26.09
2024-05-09T09:31:28.099Z,25.61
2024-05-09T09:34:06.350Z,25.25
2024-05-09T09:36:39.309Z,24.89
2024-05-09T09:39:12.536Z,25.38
2024-05-09T09:41:47.494Z,25.52
2024-05-09T09:44:20.133Z,25.04
2024-05-09T09:46:53.196Z,24.98
2024-05-09T09:49:26.330Z,24.98
2024-05-09T09:51:59.190Z,25.60
2024-05-09T09:54:32.481Z,26.04
2024-05-09T09:57:06.840Z,25.76
2024-05-09T09:59:39.951Z,25.85
2024-05-09T10:02:15.302Z,25.77
2024-05-09T10:04:48.348Z,26.21
2024-05-09T10:07:22.708Z,26.25
2024-05-09T10:09:59.296Z,25.82
2024-05-09T10:12:31.983Z,25.64
2024-05-09T10:15:10.312Z,25.67
2024-05-09T10:17:52.582Z,25.87
2024-05-09T10:20:30.812Z,25.91
2024-05-09T10:23:05.506Z,25.73
2024-05-09T10:25:38.042Z,25.78
2024-05-09T10:28:13.940Z,25.47
2024-05-09T10:30:48.934Z,25.67
2024-05-09T10:33:22.576Z,25.75
2024-05-09T10:35:56.047Z,25.64
2024-05-09T10:38:29.256Z,25.95
2024-05-09T10:41:03.091Z,25.82
2024-05-09T10:43:37.491Z,26.34
2024-05-09T10:46:11.184Z,26.85
2024-05-09T10:48:45.956Z,26.99
2024-05-09T10:51:20.189Z,27.11
2024-05-09T10:53:52.730Z,27.03
2024-05-09T10:56:25.400Z,26.86
2024-05-09T10:58:57.958Z,26.74
2024-05-09T11:01:30.581Z,26.31
2024-05-09T11:04:04.399Z,26.16
2024-05-09T11:06:38.586Z,26.27
2024-05-09T11:09:11.285Z,26.29
2024-05-09T11:11:44.488Z,26.40
2024-05-09T11:14:17.434Z,26.54
2024-05-09T11:16:50.106Z,26.22
2024-05-09T11:19:22.742Z,26.51
2024-05-09T11:21:55.686Z,26.60
2024-05-09T11:24:28.375Z,26.44
2024-05-09T11:27:01.950Z,26.54
2024-05-09T11:29:44.903Z,26.90
2024-05-09T11:32:18.237Z,26.87
2024-05-09T11:34:51.074Z,26.82
2024-05-09T11:37:24.087Z,26.45
2024-05-09T11:39:56.744Z,25.62
2024-05-09T11:42:29.405Z,25.60
2024-05-09T11:45:01.808Z,26.01
2024-05-09T11:47:34.836Z,26.23
2024-05-09T11:50:12.914Z,25.92
2024-05-09T11:52:48.763Z,25.97
2024-05-09T11:55:26.771Z,26.15
2024-05-09T11:58:00.618Z,25.54
2024-05-09T12:00:37.149Z,26.04
2024-05-09T12:03:10.758Z,25.37
2024-05-09T12:05:43.656Z,25.20
2024-05-09T12:08:16.594Z,25.63
2024-05-09T12:10:49.928Z,26.32
2024-05-09T12:13:23.054Z,26.68
2024-05-09T12:15:57.020Z,27.00
2024-05-09T12:18:29.693Z,26.98
2024-05-09T12:21:02.487Z,27.47
2024-05-09T12:23:35.204Z,28.09
2024-05-09T12:26:08.145Z,28.48
2024-05-09T12:28:40.820Z,29.09
2024-05-09T12:31:13.601Z,29.55
2024-05-09T12:33:47.271Z,29.85
2024-05-09T12:36:20.073Z,29.89
2024-05-09T12:38:52.607Z,30.11
2024-05-09T12:41:25.241Z,30.31
2024-05-09T12:43:57.863Z,30.38
2024-05-09T12:46:32.015Z,30.33
2024-05-09T12:49:04.981Z,30.48
2024-05-09T12:51:38.397Z,30.57
2024-05-09T12:54:11.174Z,30.60
2024-05-09T12:56:43.934Z,30.38
2024-05-09T12:59:16.855Z,29.84
2024-05-09T13:01:49.456Z,29.70
2024-05-09T13:04:22.231Z,29.73
2024-05-09T13:06:55.034Z,29.21
2024-05-09T13:09:27.931Z,29.94
2024-05-09T13:12:00.886Z,30.37
2024-05-09T13:14:33.616Z,30.39
2024-05-09T13:17:06.488Z,30.30
2024-05-09T13:19:39.003Z,30.09
2024-05-09T13:22:11.576Z,30.11
2024-05-09T13:24:44.700Z,29.79
2024-05-09T13:27:17.377Z,29.23
2024-05-09T13:29:50.465Z,28.93
2024-05-09T13:32:23.307Z,29.11
2024-05-09T13:34:56.252Z,29.32
2024-05-09T13:37:29.185Z,29.46
2024-05-09T13:40:02.264Z,29.73
2024-05-09T13:42:34.950Z,29.72
2024-05-09T13:45:08.755Z,30.14
2024-05-09T13:47:41.831Z,30.28
2024-05-09T13:50:23.633Z,30.01
2024-05-09T13:53:05.798Z,29.95
2024-05-09T13:55:40.894Z,29.97
2024-05-09T13:58:13.850Z,30.52
2024-05-09T14:00:49.015Z,30.65
2024-05-09T14:03:22.568Z,30.99
2024-05-09T14:05:55.983Z,31.31
2024-05-09T14:08:29.011Z,31.63
2024-05-09T14:11:01.912Z,32.07
2024-05-09T14:13:34.700Z,32.80
2024-05-09T14:16:09.312Z,33.47
2024-05-09T14:18:42.121Z,33.80
2024-05-09T14:21:14.758Z,34.30
2024-05-09T14:23:47.241Z,34.26
2024-05-09T14:26:20.077Z,34.45
2024-05-09T14:28:53.057Z,34.80
2024-05-09T14:31:25.811Z,34.77
2024-05-09T14:33:58.498Z,34.79
2024-05-09T14:36:33.287Z,35.00
2024-05-09T14:39:06.059Z,35.22
2024-05-09T14:41:39.125Z,35.38
2024-05-09T14:44:12.750Z,35.25
2024-05-09T14:46:45.772Z,35.32
2024-05-09T14:49:18.603Z,35.30
2024-05-09T14:51:51.657Z,35.13
2024-05-09T14:54:24.275Z,35.40
2024-05-09T14:56:58.170Z,35.70
2024-05-09T14:59:30.981Z,35.88
2024-05-09T15:02:03.635Z,35.78
2024-05-09T15:04:36.500Z,35.83
2024-05-09T15:07:11.587Z,35.97
2024-05-09T15:09:44.381Z,36.04
2024-05-09T15:12:17.295Z,36.22
2024-05-09T15:14:49.942Z,36.66
2024-05-09T15:17:22.677Z,36.83
2024-05-09T15:19:55.477Z,37.05
2024-05-09T15:22:28.094Z,37.45
2024-05-09T15:25:00.875Z,37.40
2024-05-09T15:27:33.404Z,37.58
2024-05-09T15:30:10.341Z,37.91
2024-05-09T15:32:43.329Z,38.08
2024-05-09T15:35:16.228Z,38.26
2024-05-09T15:37:49.078Z,38.55
2024-05-09T15:40:30.925Z,38.81
2024-05-09T15:43:11.634Z,39.03
2024-05-09T15:45:44.613Z,39.23
2024-05-09T15:48:17.219Z,39.65
2024-05-09T15:50:50.326Z,39.76
2024-05-09T15:53:23.037Z,39.86
2024-05-09T15:55:55.602Z,40.34
2024-05-09T15:58:28.275Z,40.52
2024-05-09T16:01:01.185Z,40.75
2024-05-09T16:03:34.257Z,41.09
2024-05-09T16:06:07.439Z,41.21
2024-05-09T16:08:40.338Z,41.72
2024-05-09T16:11:16.803Z,42.16
2024-05-09T16:13:48.161Z,42.74
2024-05-09T16:16:21.088Z,42.74
2024-05-09T16:18:53.746Z,42.90
2024-05-09T16:21:26.350Z,43.07
2024-05-09T16:24:00.052Z,43.39
2024-05-09T16:26:32.753Z,43.77
2024-05-09T16:29:05.438Z,43.71
2024-05-09T16:31:38.287Z,43.96
2024-05-09T16:34:10.925Z,44.24
2024-05-09T16:36:44.256Z,44.28
2024-05-09T16:39:18.489Z,44.59
2024-05-09T16:41:51.705Z,44.53
2024-05-09T16:44:24.213Z,44.59
2024-05-09T16:46:56.807Z,44.75
2024-05-09T16:49:30.136Z,45.02
2024-05-09T16:52:03.162Z,45.14
2024-05-09T16:54:35.887Z,45.11
2024-05-09T16:57:09.374Z,45.35
2024-05-09T16:59:42.015Z,45.42
2024-05-09T17:02:14.926Z,45.59
2024-05-09T17:04:47.729Z,45.60
2024-05-09T17:07:22.646Z,45.64
2024-05-09T17:09:55.621Z,45.59
2024-05-09T17:12:28.602Z,45.78
2024-05-09T17:15:01.409Z,45.90
2024-05-09T17:17:34.593Z,45.96
2024-05-09T17:20:15.584Z,46.18
2024-05-09T17:22:56.058Z,46.31
2024-05-09T17:25:29.130Z,46.29
2024-05-09T17:28:07.899Z,46.39
2024-05-09T17:30:42.760Z,46.44
2024-05-09T17:33:16.447Z,46.41
2024-05-09T17:35:51.391Z,46.62
2024-05-09T17:38:24.268Z,46.62
2024-05-09T17:40:57.956Z,46.66
2024-05-09T17:43:30.948Z,46.69
2024-05-09T17:46:03.805Z,46.75
2024-05-09T17:48:36.828Z,46.80
2024-05-09T17:51:10.058Z,46.75
2024-05-09T17:53:42.566Z,46.89
2024-05-09T17:56:15.274Z,46.81
2024-05-09T17:58:49.053Z,46.93
2024-05-09T18:01:22.090Z,47.04
2024-05-09T18:03:55.193Z,46.99
2024-05-09T18:06:28.171Z,47.04
2024-05-09T18:09:00.718Z,47.12
2024-05-09T18:11:36.102Z,46.97
2024-05-09T18:14:09.192Z,47.02
2024-05-09T18:16:42.287Z,47.11
2024-05-09T18:19:15.396Z,47.24
2024-05-09T18:21:48.066Z,47.40
2024-05-09T18:24:22.293Z,47.43
2024-05-09T18:26:55.023Z,47.70
2024-05-09T18:29:27.558Z,47.86
2024-05-09T18:32:00.183Z,48.39
2024-05-09T18:34:33.033Z,48.57
2024-05-09T18:37:06.358Z,49.17
2024-05-09T18:39:38.869Z,49.48
2024-05-09T18:42:11.503Z,49.77
2024-05-09T18:44:44.028Z,50.25
2024-05-09T18:47:19.881Z,50.54
2024-05-09T18:49:53.031Z,50.63
2024-05-09T18:52:25.969Z,50.83
2024-05-09T18:54:58.649Z,50.97
2024-05-09T18:57:31.684Z,51.03
2024-05-09T19:00:05.760Z,51.25
2024-05-09T19:02:38.914Z,51.41
2024-05-09T19:05:12.008Z,51.28
2024-05-09T19:07:44.991Z,51.02
2024-05-09T19:10:22.714Z,50.98
2024-05-09T19:12:58.783Z,50.66
2024-05-09T19:15:31.358Z,50.45
2024-05-09T19:18:04.077Z,50.19
2024-05-09T19:20:37.664Z,50.20
2024-05-09T19:23:11.846Z,50.31
2024-05-09T19:25:44.744Z,50.47
2024-05-09T19:28:17.544Z,50.38
2024-05-09T19:30:50.373Z,50.41
2024-05-09T19:33:23.254Z,50.59
2024-05-09T19:35:55.797Z,50.66
2024-05-09T19:38:28.361Z,50.60
2024-05-09T19:41:01.916Z,50.90
2024-05-09T19:43:35.967Z,50.05
2024-05-09T19:46:09.137Z,49.48
2024-05-09T19:48:41.832Z,49.32
2024-05-09T19:51:14.587Z,49.28
2024-05-09T19:53:47.254Z,49.18
2024-05-09T19:56:19.896Z,49.09
2024-05-09T19:58:52.597Z,49.42
2024-05-09T20:01:25.236Z,49.68
2024-05-09T20:03:59.361Z,50.00
2024-05-09T20:06:32.228Z,50.58
2024-05-09T20:09:04.943Z,50.59
2024-05-09T20:11:38.969Z,50.80
2024-05-09T20:14:11.616Z,50.74
2024-05-09T20:16:44.532Z,50.69
2024-05-09T20:19:17.236Z,51.02
2024-05-09T20:21:50.285Z,51.36
2024-05-09T20:24:22.804Z,51.73
2024-05-09T20:26:55.356Z,52.20
2024-05-09T20:29:27.924Z,52.14
2024-05-09T20:32:00.644Z,52.41
2024-05-09T20:34:33.308Z,52.32
2024-05-09T20:37:06.129Z,52.14
2024-05-09T20:39:38.937Z,52.19
2024-05-09T20:42:11.606Z,52.34
2024-05-09T20:44:45.295Z,52.26
2024-05-09T20:47:18.756Z,52.42
2024-05-09T20:49:51.675Z,52.85
2024-05-09T20:52:24.415Z,53.02
2024-05-09T20:54:56.951Z,53.06
2024-05-09T20:57:29.764Z,53.15
2024-05-09T21:00:02.556Z,53.45
2024-05-09T21:02:38.586Z,53.48
2024-05-09T21:05:12.452Z,53.79
2024-05-09T21:07:45.147Z,53.77
2024-05-09T21:10:22.415Z,53.89
2024-05-09T21:12:55.767Z,53.55
2024-05-09T21:15:28.326Z,53.16
2024-05-09T21:18:00.900Z,52.99
2024-05-09T21:20:35.308Z,52.81
2024-05-09T21:23:08.364Z,52.56
2024-05-09T21:25:41.108Z,52.41
2024-05-09T21:28:16.838Z,52.23
2024-05-09T21:30:49.484Z,52.20
2024-05-09T21:33:22.206Z,52.25
2024-05-09T21:35:55.739Z,52.15
2024-05-09T21:38:30.795Z,52.17
2024-05-09T21:41:03.661Z,52.04
2024-05-09T21:43:39.051Z,52.06
2024-05-09T21:46:11.695Z,52.03
2024-05-09T21:48:44.400Z,51.95
2024-05-09T21:51:20.018Z,51.66
2024-05-09T21:53:52.624Z,51.55
2024-05-09T21:56:25.108Z,51.62
2024-05-09T21:58:57.651Z,51.73
2024-05-09T22:01:30.618Z,51.71
2024-05-09T22:04:03.408Z,51.66
2024-05-09T22:06:36.139Z,51.61
2024-05-09T22:09:08.691Z,51.63
2024-05-09T22:11:41.271Z,51.68
2024-05-09T22:14:13.948Z,51.66
2024-05-09T22:16:47.107Z,51.89
2024-05-09T22:19:20.077Z,51.82
2024-05-09T22:21:52.847Z,52.04
2024-05-09T22:24:25.524Z,52.05
2024-05-09T22:26:58.137Z,52.19
2024-05-09T22:29:30.959Z,52.11
2024-05-09T22:32:03.841Z,52.15
2024-05-09T22:34:36.572Z,52.17
2024-05-09T22:37:09.686Z,52.22
2024-05-09T22:39:42.748Z,52.19
2024-05-09T22:42:15.321Z,52.17
2024-05-09T22:44:49.040Z,52.22
2024-05-09T22:47:22.066Z,52.36
2024-05-09T22:49:54.739Z,52.39
2024-05-09T22:52:27.182Z,52.43
2024-05-09T22:54:59.762Z,52.54
2024-05-09T22:57:32.423Z,52.46
2024-05-09T23:00:07.919Z,52.79
2024-05-09T23:02:42.580Z,52.78
2024-05-09T23:05:15.791Z,52.67
2024-05-09T23:07:48.500Z,52.65
2024-05-09T23:10:28.034Z,52.71
2024-05-09T23:13:08.379Z,52.92
2024-05-09T23:15:41.433Z,53.07
2024-05-09T23:18:14.094Z,53.34
2024-05-09T23:20:46.700Z,53.87
2024-05-09T23:23:20.596Z,54.37
2024-05-09T23:25:54.037Z,54.55
2024-05-09T23:28:26.834Z,54.85
2024-05-09T23:30:59.720Z,54.94
2024-05-09T23:33:32.584Z,55.26
2024-05-09T23:36:05.572Z,55.10
2024-05-09T23:38:38.150Z,55.28
2024-05-09T23:41:10.717Z,55.38
2024-05-09T23:43:43.531Z,55.38
2024-05-09T23:46:16.109Z,55.17
2024-05-09T23:48:48.915Z,55.10
2024-05-09T23:51:21.636Z,55.28
2024-05-09T23:53:54.484Z,55.23
2024-05-09T23:56:27.097Z,55.34
2024-05-09T23:58:59.849Z,55.47
